Time;durP1;ratioP1;P1;durP2;ratioP2;P2;SDS_P1;SDS_P2;PMS_P1;PMS_P2;Temp;Humidity;BMP_temperature;BMP_pressure;BME280_temperature;BME280_humidity;BME280_pressure;Samples;Min_cycle;Max_cycle;Signal;HPM_P1;HPM_P2
2022/03/07 00:01:45;;;;;;;14.27;8.27;;;3.00;99.90;;;2.77;72.15;94646.50;4991704;28;21321;-60
2022/03/07 00:04:16;;;;;;;12.47;7.90;;;3.10;99.90;;;2.76;71.67;94644.84;4990446;28;20453;-54
2022/03/07 00:06:44;;;;;;;10.60;7.13;;;3.00;99.90;;;2.76;71.81;94651.78;4992997;28;20933;-61
2022/03/07 00:09:11;;;;;;;13.07;8.30;;;3.00;99.90;;;2.76;72.29;94657.84;4991771;28;20796;-61
2022/03/07 00:11:38;;;;;;;12.03;7.90;;;3.00;99.90;;;2.77;72.25;94656.06;5000210;28;20560;-57
2022/03/07 00:14:06;;;;;;;13.70;7.77;;;3.00;99.90;;;2.78;72.16;94653.38;4999656;28;20544;-62
2022/03/07 00:16:33;;;;;;;10.97;7.40;;;3.00;99.90;;;2.78;71.97;94647.34;5005373;28;20481;-57
2022/03/07 00:19:00;;;;;;;11.90;7.47;;;3.00;99.90;;;2.78;72.20;94636.97;4996714;28;20479;-55
2022/03/07 00:21:29;;;;;;;12.43;8.13;;;3.00;99.90;;;2.78;72.31;94643.00;5000404;28;20496;-56
2022/03/07 00:23:56;;;;;;;9.53;7.30;;;3.00;99.90;;;2.78;71.36;94632.59;5000971;28;20483;-61
2022/03/07 00:26:23;;;;;;;11.97;7.57;;;3.00;99.90;;;2.78;72.31;94631.78;5000617;28;20559;-62
2022/03/07 00:28:51;;;;;;;12.47;8.93;;;3.00;99.90;;;2.79;72.18;94639.47;4996409;28;21068;-62
2022/03/07 00:31:20;;;;;;;13.47;7.80;;;3.00;99.90;;;2.81;72.21;94639.38;5000807;28;20814;-61
2022/03/07 00:33:47;;;;;;;12.33;7.60;;;3.00;99.90;;;2.81;71.83;94640.19;4988907;28;20509;-57
2022/03/07 00:36:15;;;;;;;13.67;8.37;;;3.00;99.90;;;2.82;71.82;94641.88;4995687;28;20471;-61
2022/03/07 00:38:44;;;;;;;10.43;7.07;;;3.10;99.90;;;2.85;71.69;94640.81;4998496;28;20458;-60
2022/03/07 00:41:11;;;;;;;13.20;7.80;;;3.10;99.90;;;2.85;71.24;94633.88;4991366;28;21077;-61
2022/03/07 00:43:39;;;;;;;19.53;8.03;;;3.10;99.90;;;2.85;72.03;94633.88;4989201;28;21080;-61
2022/03/07 00:46:06;;;;;;;20.20;9.17;;;3.10;99.90;;;2.88;71.46;94643.22;4991865;28;20487;-61
2022/03/07 00:48:34;;;;;;;13.30;8.97;;;3.10;99.90;;;2.91;72.14;94642.19;4993010;28;20458;-56
2022/03/07 00:51:01;;;;;;;15.80;9.50;;;3.10;99.90;;;2.94;71.55;94642.00;4995973;28;20502;-54
2022/03/07 00:53:28;;;;;;;15.40;8.87;;;3.20;99.90;;;2.95;72.24;94643.69;4992730;28;21005;-61
2022/03/07 00:55:57;;;;;;;11.03;7.60;;;3.20;99.90;;;2.97;72.27;94641.81;4986863;28;21058;-60
2022/03/07 00:58:24;;;;;;;9.63;7.27;;;3.20;99.90;;;2.97;71.07;94647.00;4989169;28;20458;-56
2022/03/07 01:00:52;;;;;;;7.10;5.80;;;3.20;99.90;;;2.99;71.53;94645.13;4985464;28;20542;-63
2022/03/07 01:03:19;;;;;;;8.90;6.93;;;3.20;99.90;;;2.99;71.29;94635.59;4992063;28;20539;-61
2022/03/07 01:05:47;;;;;;;12.07;7.17;;;3.20;99.90;;;3.01;71.54;94628.50;4994714;28;20478;-54
2022/03/07 01:08:14;;;;;;;12.00;8.20;;;3.20;99.90;;;3.04;72.11;94628.31;5000320;28;20479;-61
2022/03/07 01:10:41;;;;;;;9.80;6.87;;;3.30;99.90;;;3.08;70.92;94618.53;5004807;28;20933;-61
2022/03/07 01:13:10;;;;;;;9.47;6.73;;;3.30;99.90;;;3.10;70.75;94621.03;4994972;28;20644;-56
2022/03/07 01:15:37;;;;;;;8.30;6.33;;;3.30;99.90;;;3.12;70.86;94624.41;4998283;28;20942;-55
2022/03/07 01:18:05;;;;;;;10.57;7.30;;;3.40;99.90;;;3.10;70.66;94616.69;4992691;28;20464;-56
2022/03/07 01:20:32;;;;;;;12.23;6.97;;;3.30;99.90;;;3.07;71.05;94611.69;4990252;28;20465;-58
2022/03/07 01:22:59;;;;;;;8.03;7.23;;;3.30;99.80;;;3.05;71.34;94609.22;4993901;28;20462;-56
2022/03/07 01:25:27;;;;;;;9.30;7.40;;;3.30;99.90;;;3.05;70.82;94608.34;4997558;28;21007;-56
2022/03/07 01:27:54;;;;;;;9.37;7.67;;;3.30;99.90;;;3.06;71.40;94607.44;4998923;28;20834;-61
2022/03/07 01:30:22;;;;;;;11.47;6.80;;;3.30;99.90;;;3.06;71.65;94604.84;4990056;28;20474;-61
2022/03/07 01:32:52;;;;;;;8.00;6.23;;;3.30;99.90;;;3.04;71.18;94606.72;4993680;28;20485;-56
2022/03/07 01:35:19;;;;;;;6.83;5.90;;;3.30;99.80;;;3.00;71.13;94605.22;4988762;28;20573;-56
2022/03/07 01:37:47;;;;;;;9.10;6.53;;;3.30;99.80;;;3.01;71.66;94601.72;4989782;28;20484;-56
2022/03/07 01:40:14;;;;;;;8.63;5.77;;;3.30;99.90;;;3.02;70.30;94600.75;4989096;28;20517;-62
2022/03/07 01:42:41;;;;;;;6.10;5.50;;;3.30;99.90;;;3.01;70.72;94599.94;4992779;28;20478;-60
2022/03/07 01:45:10;;;;;;;6.43;5.60;;;3.20;99.80;;;2.99;70.87;94600.97;4987878;28;20451;-56
2022/03/07 01:47:39;;;;;;;8.57;6.50;;;3.30;99.80;;;2.97;70.92;94600.25;4989669;28;20474;-55
2022/03/07 01:50:08;;;;;;;5.70;5.10;;;3.20;99.80;;;2.96;70.43;94606.34;4990055;28;20840;-61
2022/03/07 01:52:35;;;;;;;5.40;4.90;;;3.20;99.80;;;2.94;69.96;94603.03;4990186;28;20487;-57
2022/03/07 01:55:02;;;;;;;5.73;5.23;;;3.20;99.80;;;2.93;70.26;94607.41;4998993;28;20946;-54
2022/03/07 01:57:30;;;;;;;5.83;5.20;;;3.20;99.80;;;2.93;71.02;94610.00;5002789;28;20488;-55
2022/03/07 01:59:57;;;;;;;8.70;4.93;;;3.20;99.80;;;2.94;70.66;94606.47;4994441;28;20451;-59
2022/03/07 02:02:25;;;;;;;6.60;5.50;;;3.20;99.80;;;2.95;70.96;94602.13;4988939;28;20474;-56
2022/03/07 02:04:54;;;;;;;6.27;5.67;;;3.20;99.90;;;2.96;70.39;94598.56;4990243;28;20486;-61
2022/03/07 02:07:22;;;;;;;7.53;6.13;;;3.20;99.80;;;2.98;71.55;94594.13;4996208;28;20555;-62
2022/03/07 02:09:49;;;;;;;6.80;5.80;;;3.20;99.90;;;3.01;71.12;94596.53;5000714;28;20974;-60
2022/03/07 02:12:16;;;;;;;6.17;5.33;;;3.30;99.90;;;2.99;70.64;94599.22;4988854;28;20544;-60
2022/03/07 02:14:44;;;;;;;6.70;5.90;;;3.20;99.90;;;2.99;70.78;94601.81;5000449;28;20493;-60
2022/03/07 02:17:11;;;;;;;7.50;6.37;;;3.20;99.90;;;3.02;71.03;94600.75;4986155;28;20483;-54
2022/03/07 02:19:38;;;;;;;7.87;6.83;;;3.20;99.90;;;3.04;71.33;94606.72;4995502;28;20940;-56
2022/03/07 02:22:07;;;;;;;9.00;7.27;;;3.30;99.90;;;3.07;70.79;94610.84;4990756;28;20473;-60
2022/03/07 02:24:34;;;;;;;7.80;6.90;;;3.30;99.90;;;3.07;70.62;94610.84;4984950;28;20468;-60
2022/03/07 02:27:03;;;;;;;9.03;6.80;;;3.30;99.80;;;3.07;70.25;94611.69;4996065;28;20830;-57
2022/03/07 02:29:30;;;;;;;9.40;6.70;;;3.30;99.80;;;3.07;70.93;94608.25;4992487;28;20454;-54
2022/03/07 02:31:58;;;;;;;8.50;6.90;;;3.30;99.80;;;3.05;71.45;94608.34;4989274;28;20478;-61
2022/03/07 02:34:25;;;;;;;8.00;6.73;;;3.30;99.80;;;3.06;70.82;94610.03;4986309;28;20493;-61
2022/03/07 02:36:52;;;;;;;7.33;6.13;;;3.30;99.80;;;3.05;70.18;94610.94;4990727;28;20834;-59
2022/03/07 02:39:21;;;;;;;9.80;7.10;;;3.30;99.80;;;3.05;70.13;94608.34;4986718;28;20908;-61
2022/03/07 02:41:48;;;;;;;7.33;6.40;;;3.30;99.80;;;3.07;71.24;94616.03;4987691;28;20478;-55
2022/03/07 02:44:16;;;;;;;10.00;6.60;;;3.30;99.80;;;3.05;70.20;94608.34;4984678;28;20455;-60
2022/03/07 02:46:43;;;;;;;10.90;6.90;;;3.30;99.80;;;3.06;71.38;94610.03;4996663;28;20481;-62
2022/03/07 02:49:11;;;;;;;9.70;5.53;;;3.30;99.80;;;3.08;70.77;94613.34;4994938;28;20824;-60
2022/03/07 02:51:38;;;;;;;14.10;7.93;;;3.30;99.80;;;3.13;71.02;94616.50;4994263;28;20804;-60
2022/03/07 02:54:05;;;;;;;8.20;6.27;;;3.30;99.90;;;3.17;71.01;94612.75;5002368;28;20497;-57
2022/03/07 02:56:34;;;;;;;7.73;6.93;;;3.40;99.90;;;3.20;71.26;94617.75;4989617;28;20483;-55
2022/03/07 02:59:01;;;;;;;6.90;5.80;;;3.40;99.90;;;3.22;70.44;94626.28;4997968;28;21277;-55
2022/03/07 03:01:29;;;;;;;6.57;5.97;;;3.50;99.90;;;3.24;70.28;94618.38;4994387;28;20473;-60
2022/03/07 03:03:56;;;;;;;7.60;6.20;;;3.50;99.70;;;3.21;70.09;94622.00;4989788;28;20458;-55
2022/03/07 03:06:23;;;;;;;7.87;6.17;;;3.50;99.60;;;3.22;70.86;94612.44;4996558;28;20484;-57
2022/03/07 03:08:51;;;;;;;6.87;6.00;;;3.50;99.60;;;3.19;70.07;94616.09;4998135;28;20818;-60
2022/03/07 03:11:18;;;;;;;7.80;6.03;;;3.40;99.60;;;3.20;70.71;94619.50;4990139;28;21018;-57
2022/03/07 03:13:47;;;;;;;4.87;4.47;;;3.40;99.50;;;3.19;70.64;94618.69;4991045;28;20482;-61
2022/03/07 03:16:14;;;;;;;7.97;5.00;;;3.40;99.60;;;3.18;69.97;94613.59;4996529;28;20500;-62
2022/03/07 03:18:41;;;;;;;6.17;5.57;;;3.40;99.50;;;3.14;70.29;94620.75;4993385;28;20455;-57
2022/03/07 03:21:08;;;;;;;4.23;3.93;;;3.40;99.50;;;3.14;70.57;94619.91;4994274;28;21041;-54
2022/03/07 03:23:35;;;;;;;4.90;4.50;;;3.40;99.70;;;3.13;71.08;94626.88;4992696;28;20458;-60
2022/03/07 03:26:03;;;;;;;5.87;4.17;;;3.40;99.70;;;3.09;70.31;94627.19;4990148;28;20474;-56
2022/03/07 03:28:30;;;;;;;5.83;5.07;;;3.30;99.60;;;3.03;70.23;94618.03;4993348;28;20541;-61
2022/03/07 03:30:59;;;;;;;4.63;4.23;;;3.30;99.60;;;3.03;70.43;94628.41;4992623;28;20481;-55
2022/03/07 03:33:26;;;;;;;4.47;4.10;;;3.30;99.70;;;3.00;70.74;94631.22;4990854;28;20857;-56
2022/03/07 03:35:53;;;;;;;4.80;4.40;;;3.30;99.80;;;3.00;70.74;94620.81;4991725;28;20478;-59
2022/03/07 03:38:21;;;;;;;4.90;4.40;;;3.20;99.80;;;3.01;71.46;94619.91;4997433;28;20454;-60
2022/03/07 03:40:48;;;;;;;6.07;5.10;;;3.20;99.80;;;2.99;70.84;94619.16;5005695;28;20536;-55
2022/03/07 03:43:15;;;;;;;6.07;5.17;;;3.20;99.80;;;2.98;70.50;94622.69;5005146;28;20454;-60
2022/03/07 03:45:42;;;;;;;8.60;6.37;;;3.20;99.80;;;2.97;70.73;94628.81;4999055;28;20461;-62
2022/03/07 03:48:11;;;;;;;7.77;5.93;;;3.20;99.90;;;2.99;70.58;94632.13;4996775;28;20520;-56
2022/03/07 03:50:39;;;;;;;5.30;4.90;;;3.20;99.90;;;2.98;71.48;94630.50;4995789;28;20829;-62
2022/03/07 03:53:06;;;;;;;4.77;4.40;;;3.20;99.90;;;2.96;70.64;94627.13;5002099;28;20869;-60
2022/03/07 03:55:33;;;;;;;6.13;4.30;;;3.20;99.90;;;2.95;71.21;94639.31;5000770;28;20481;-56
2022/03/07 03:58:00;;;;;;;4.93;4.53;;;3.20;99.90;;;2.96;71.40;94628.00;4993791;28;20840;-61
2022/03/07 04:00:28;;;;;;;4.47;4.07;;;3.20;99.90;;;2.97;70.98;94631.41;4997109;28;20446;-61
2022/03/07 04:02:55;;;;;;;4.37;3.97;;;3.20;99.90;;;2.93;70.63;94625.59;4996897;28;20652;-56
2022/03/07 04:05:24;;;;;;;3.60;3.33;;;3.20;99.90;;;3.00;71.64;94624.25;4989485;28;20779;-62
2022/03/07 04:07:51;;;;;;;5.40;3.80;;;3.20;99.90;;;3.01;70.19;94623.31;5000782;28;20942;-56
2022/03/07 04:10:18;;;;;;;4.47;4.13;;;3.30;99.80;;;3.00;70.15;94636.41;4994326;28;20836;-60
2022/03/07 04:12:46;;;;;;;3.80;3.47;;;3.30;99.70;;;2.97;70.10;94632.22;4995056;28;20504;-54
2022/03/07 04:15:15;;;;;;;4.23;3.83;;;3.20;99.50;;;2.95;69.82;94634.09;4993166;28;20561;-61
2022/03/07 04:17:44;;;;;;;4.43;3.87;;;3.20;99.40;;;2.93;70.56;94629.94;4989498;28;20562;-60
2022/03/07 04:20:12;;;;;;;3.20;3.00;;;3.20;99.40;;;2.91;70.52;94630.03;4987985;28;20455;-55
2022/03/07 04:22:41;;;;;;;3.97;3.67;;;3.20;99.20;;;2.90;70.05;94640.53;4987855;28;20470;-60
2022/03/07 04:25:09;;;;;;;6.03;4.00;;;3.10;99.40;;;2.89;70.03;94633.69;4994304;28;20450;-56
2022/03/07 04:27:37;;;;;;;4.00;3.70;;;3.10;99.30;;;2.90;70.52;94640.53;4992231;28;20474;-56
2022/03/07 04:30:05;;;;;;;4.23;3.83;;;3.10;99.40;;;2.91;70.49;94631.81;4994473;28;20445;-61
2022/03/07 04:32:36;;;;;;;4.70;4.30;;;3.10;99.40;;;2.95;69.99;94639.31;4995617;28;20465;-61
2022/03/07 04:35:05;;;;;;;3.70;3.43;;;3.20;99.50;;;2.96;69.72;94642.72;4990958;28;20487;-61
2022/03/07 04:37:33;;;;;;;3.60;3.30;;;3.20;99.00;;;2.94;70.17;94642.00;5004135;28;20483;-61
2022/03/07 04:40:02;;;;;;;4.03;3.73;;;3.20;99.20;;;2.92;69.87;94633.47;4993568;28;20454;-55
2022/03/07 04:42:30;;;;;;;5.07;4.40;;;3.20;99.40;;;2.95;69.69;94636.72;4991563;28;20546;-56
2022/03/07 04:44:57;;;;;;;4.53;4.13;;;3.20;99.30;;;2.96;69.65;94640.13;4988999;28;20450;-60
2022/03/07 04:47:24;;;;;;;4.10;3.80;;;3.20;99.20;;;2.96;70.24;94640.97;4993748;28;20565;-59
2022/03/07 04:49:51;;;;;;;4.80;4.40;;;3.20;99.30;;;2.97;70.67;94637.44;4991573;28;20457;-60
2022/03/07 04:52:19;;;;;;;5.10;4.50;;;3.30;99.40;;;2.99;71.30;94635.59;4994314;28;20496;-60
2022/03/07 04:54:46;;;;;;;5.90;4.80;;;3.20;99.70;;;3.00;69.94;94641.59;5003177;28;20489;-55
2022/03/07 04:57:15;;;;;;;4.70;4.20;;;3.30;99.40;;;3.01;69.60;94643.28;4994430;28;20963;-57
2022/03/07 04:59:45;;;;;;;5.10;4.60;;;3.30;99.30;;;3.01;70.56;94640.69;4991753;28;20450;-54
2022/03/07 05:02:13;;;;;;;5.13;4.57;;;3.30;99.30;;;3.01;69.77;94638.91;4992165;28;20894;-60
2022/03/07 05:04:40;;;;;;;4.53;4.13;;;3.30;99.30;;;3.03;69.64;94641.41;4991263;28;20463;-60
2022/03/07 05:07:08;;;;;;;6.13;4.40;;;3.30;99.30;;;3.02;70.50;94642.31;4992716;28;20506;-57
2022/03/07 05:09:35;;;;;;;4.93;4.50;;;3.30;99.20;;;3.03;70.17;94641.41;4996856;28;20473;-57
2022/03/07 05:12:03;;;;;;;4.37;4.07;;;3.30;99.20;;;3.03;69.62;94638.81;4999672;28;20477;-60
2022/03/07 05:14:32;;;;;;;5.30;4.80;;;3.30;99.30;;;3.05;69.72;94644.72;5002935;28;20493;-55
2022/03/07 05:16:59;;;;;;;6.10;4.40;;;3.30;99.00;;;3.03;69.32;94644.00;4991578;28;20485;-61
2022/03/07 05:19:26;;;;;;;4.20;3.80;;;3.30;99.10;;;3.02;70.08;94648.38;4990015;28;20454;-57
2022/03/07 05:21:53;;;;;;;4.40;4.10;;;3.30;99.10;;;3.02;70.54;94640.59;4993675;28;20483;-57
2022/03/07 05:24:21;;;;;;;4.40;4.00;;;3.30;99.20;;;3.03;69.64;94638.81;4997494;28;20466;-56
2022/03/07 05:26:48;;;;;;;5.20;4.63;;;3.30;99.10;;;3.04;69.28;94643.91;4995714;28;20997;-60
2022/03/07 05:29:15;;;;;;;5.83;4.50;;;3.30;99.00;;;3.04;69.45;94643.09;5000769;28;20449;-57
2022/03/07 05:31:44;;;;;;;7.20;5.43;;;3.30;99.00;;;3.01;69.60;94638.91;4999226;28;20482;-57
2022/03/07 05:34:11;;;;;;;6.83;6.00;;;3.30;99.00;;;3.05;70.18;94645.59;4994456;28;20558;-57
2022/03/07 05:36:38;;;;;;;4.43;4.00;;;3.30;98.90;;;3.06;69.03;94641.22;4988192;28;20482;-61
2022/03/07 05:39:06;;;;;;;5.67;4.00;;;3.30;98.80;;;3.08;69.62;94644.53;4991559;28;20451;-54
2022/03/07 05:41:33;;;;;;;5.40;4.10;;;3.30;98.70;;;3.07;69.55;94640.28;4994916;28;20482;-61
2022/03/07 05:44:00;;;;;;;5.03;4.53;;;3.30;98.70;;;3.07;69.82;94642.88;4998254;28;20459;-57
2022/03/07 05:46:28;;;;;;;5.20;4.70;;;3.30;98.60;;;3.07;69.61;94645.47;4994109;28;20478;-58
2022/03/07 05:48:57;;;;;;;6.20;4.33;;;3.30;98.60;;;3.07;69.39;94650.69;4997160;28;20458;-57
2022/03/07 05:51:25;;;;;;;7.70;5.23;;;3.30;98.40;;;3.03;68.72;94646.59;5003299;28;20504;-56
2022/03/07 05:53:52;;;;;;;7.60;5.40;;;3.30;98.40;;;3.00;68.95;94647.63;4995530;28;20926;-56
2022/03/07 05:56:19;;;;;;;6.20;5.50;;;3.30;98.40;;;3.00;69.20;94647.63;4988104;28;20776;-63
2022/03/07 05:58:47;;;;;;;5.33;4.83;;;3.30;98.50;;;2.99;68.64;94640.78;4990083;28;20450;-61
2022/03/07 06:01:14;;;;;;;5.23;4.00;;;3.30;98.40;;;2.96;68.70;94646.19;4991157;28;20553;-62
2022/03/07 06:03:42;;;;;;;5.07;4.43;;;3.20;97.90;;;2.90;69.11;94640.53;4994067;28;20455;-56
2022/03/07 06:06:10;;;;;;;11.77;4.13;;;3.20;98.10;;;2.86;69.67;94650.28;5000665;28;20474;-55
2022/03/07 06:08:37;;;;;;;5.43;4.93;;;3.10;98.30;;;2.85;69.13;94648.63;4999848;28;21100;-62
2022/03/07 06:11:05;;;;;;;5.20;4.77;;;3.10;98.30;;;2.85;68.89;94648.63;5002357;28;20491;-55
2022/03/07 06:13:32;;;;;;;4.90;4.50;;;3.10;98.50;;;2.86;69.06;94643.31;4984694;28;20534;-60
2022/03/07 06:15:59;;;;;;;6.57;5.87;;;3.10;98.50;;;2.86;68.91;94651.09;4991390;28;20493;-62
2022/03/07 06:18:27;;;;;;;6.83;5.40;;;3.10;98.30;;;2.89;68.91;94654.47;4991526;28;20459;-62
2022/03/07 06:20:55;;;;;;;18.43;8.30;;;3.10;98.20;;;2.86;68.69;94643.31;4995512;28;20600;-62
2022/03/07 06:23:24;;;;;;;11.53;7.73;;;3.10;98.20;;;2.87;69.31;94649.38;4992689;28;20461;-56
2022/03/07 06:25:51;;;;;;;8.60;5.97;;;3.10;98.20;;;2.87;68.42;94652.78;5000096;28;20474;-62
2022/03/07 06:28:19;;;;;;;8.37;6.60;;;3.10;98.30;;;2.90;68.77;94656.09;5003139;28;20584;-61
2022/03/07 06:30:47;;;;;;;15.90;7.17;;;3.10;98.40;;;2.91;69.01;94652.59;4991926;28;20478;-63
2022/03/07 06:33:14;;;;;;;12.17;7.37;;;3.20;98.40;;;2.94;69.54;94655.81;4990658;28;20486;-62
2022/03/07 06:35:41;;;;;;;9.97;7.70;;;3.20;98.50;;;2.99;68.68;94652.91;4993978;28;20606;-62
2022/03/07 06:38:09;;;;;;;12.27;6.73;;;3.20;98.50;;;3.04;69.10;94649.09;4991138;28;20454;-53
2022/03/07 06:40:37;;;;;;;8.33;6.20;;;3.30;98.40;;;3.11;69.47;94657.31;4990198;28;20447;-56
2022/03/07 06:43:04;;;;;;;6.03;5.47;;;3.30;98.50;;;3.16;69.37;94655.28;4995612;28;20450;-56
2022/03/07 06:45:32;;;;;;;7.80;5.63;;;3.40;98.20;;;3.20;68.80;94659.31;4998005;28;20447;-61
2022/03/07 06:47:59;;;;;;;16.47;7.83;;;3.50;98.20;;;3.23;67.74;94653.91;5003488;28;20485;-62
2022/03/07 06:50:27;;;;;;;14.97;7.47;;;3.50;97.90;;;3.23;67.39;94648.72;4987799;28;20477;-58
2022/03/07 06:52:54;;;;;;;14.27;8.20;;;3.50;97.40;;;3.24;68.45;94652.16;4989538;28;20458;-63
2022/03/07 06:55:21;;;;;;;12.30;7.30;;;3.50;97.60;;;3.23;67.81;94653.91;4988825;28;20490;-62
2022/03/07 06:57:50;;;;;;;9.97;6.30;;;3.50;97.60;;;3.25;67.38;94660.78;4988680;28;20478;-56
2022/03/07 07:00:18;;;;;;;7.97;6.30;;;3.50;97.50;;;3.22;67.72;94657.47;4997956;28;20504;-56
2022/03/07 07:02:45;;;;;;;6.73;4.30;;;3.50;97.40;;;3.23;68.10;94653.09;4990502;28;20470;-57
2022/03/07 07:05:13;;;;;;;5.90;3.83;;;3.50;97.40;;;3.23;67.54;94659.13;4995767;28;20880;-61
2022/03/07 07:07:42;;;;;;;4.87;3.50;;;3.50;97.40;;;3.19;67.91;94660.28;4996598;28;20474;-57
2022/03/07 07:10:10;;;;;;;4.60;4.17;;;3.50;97.40;;;3.20;67.66;94661.91;4989058;28;20450;-56
2022/03/07 07:12:37;;;;;;;5.47;4.27;;;3.40;97.60;;;3.20;68.10;94651.53;4988976;28;20502;-57
2022/03/07 07:15:07;;;;;;;9.33;4.60;;;3.50;97.70;;;3.22;67.53;94656.63;4987224;28;20494;-61
2022/03/07 07:17:35;;;;;;;4.50;4.10;;;3.50;97.60;;;3.21;67.60;94650.59;4997054;28;21030;-56
2022/03/07 07:20:02;;;;;;;7.83;4.33;;;3.50;97.40;;;3.21;68.31;94661.00;4997878;28;20828;-61
2022/03/07 07:22:29;;;;;;;4.50;4.10;;;3.50;97.50;;;3.21;68.31;94661.00;5001613;28;20484;-60
2022/03/07 07:24:57;;;;;;;6.63;5.17;;;3.50;97.80;;;3.23;68.56;94666.91;4992721;28;20457;-61
2022/03/07 07:27:24;;;;;;;10.90;5.13;;;3.50;97.80;;;3.26;67.84;94668.50;4988410;28;20478;-56
2022/03/07 07:29:52;;;;;;;9.17;5.23;;;3.50;97.40;;;3.26;68.21;94673.69;4986841;28;20462;-61
2022/03/07 07:32:20;;;;;;;6.70;5.97;;;3.50;97.50;;;3.29;67.98;94670.06;4989005;28;20466;-56
2022/03/07 07:34:48;;;;;;;7.37;5.50;;;3.50;97.40;;;3.29;67.60;94672.66;4991721;28;20554;-54
2022/03/07 07:37:15;;;;;;;7.87;5.73;;;3.50;97.40;;;3.28;67.66;94671.00;4991815;28;20478;-62
2022/03/07 07:39:42;;;;;;;8.00;5.50;;;3.50;97.30;;;3.30;67.15;94667.38;5000121;28;20461;-56
2022/03/07 07:42:10;;;;;;;5.23;4.17;;;3.50;97.40;;;3.32;66.90;94680.25;5003336;28;20488;-53
2022/03/07 07:44:37;;;;;;;3.77;3.50;;;3.60;97.40;;;3.34;67.41;94675.78;5000587;28;20447;-62
2022/03/07 07:47:07;;;;;;;4.00;3.70;;;3.60;97.40;;;3.37;67.66;94679.00;4990675;28;20478;-55
2022/03/07 07:49:36;;;;;;;5.67;3.93;;;3.60;97.40;;;3.40;66.41;94677.97;4985942;28;20486;-61
2022/03/07 07:52:03;;;;;;;4.17;3.87;;;3.70;96.90;;;3.38;66.37;94682.47;4996504;28;20485;-62
2022/03/07 07:54:31;;;;;;;8.83;4.03;;;3.70;96.60;;;3.38;66.42;94682.47;4997743;28;20462;-63
2022/03/07 07:56:58;;;;;;;9.20;4.03;;;3.70;96.60;;;3.38;66.74;94685.06;5001017;28;20841;-56
2022/03/07 07:59:25;;;;;;;4.67;3.80;;;3.60;96.50;;;3.38;66.40;94682.47;4997568;28;20458;-55
2022/03/07 08:01:53;;;;;;;4.43;4.10;;;3.70;96.90;;;3.41;66.91;94687.47;5006037;28;20959;-59
2022/03/07 08:04:20;;;;;;;4.73;4.27;;;3.70;96.70;;;3.42;66.72;94686.50;4993110;28;20581;-60
2022/03/07 08:06:49;;;;;;;4.80;3.60;;;3.70;96.80;;;3.45;67.10;94685.47;4991687;28;20501;-62
2022/03/07 08:09:16;;;;;;;5.67;4.40;;;3.70;96.80;;;3.48;66.80;94682.69;4996102;28;20907;-55
2022/03/07 08:11:43;;;;;;;5.50;4.10;;;3.70;96.60;;;3.50;66.54;94681.66;5000615;28;20503;-61
2022/03/07 08:14:11;;;;;;;5.17;4.17;;;3.80;96.60;;;3.53;66.27;94680.59;5002009;28;20962;-62
2022/03/07 08:16:38;;;;;;;4.50;4.07;;;3.80;96.40;;;3.56;66.12;94691.66;5001238;28;20510;-62
2022/03/07 08:19:05;;;;;;;5.80;4.50;;;3.80;96.50;;;3.62;66.59;94686.97;5000788;28;20507;-62
2022/03/07 08:21:32;;;;;;;4.33;3.93;;;3.80;96.50;;;3.66;66.09;94680.63;5005732;28;20485;-63
2022/03/07 08:24:01;;;;;;;10.27;5.50;;;3.90;96.30;;;3.67;65.47;94680.53;4994070;28;20462;-62
2022/03/07 08:26:29;;;;;;;10.13;5.40;;;3.90;95.80;;;3.67;65.11;94683.13;4991440;28;20474;-56
2022/03/07 08:28:56;;;;;;;15.77;5.47;;;3.90;95.40;;;3.67;65.57;94684.88;4993956;28;20836;-57
2022/03/07 08:31:23;;;;;;;12.70;6.60;;;3.90;95.60;;;3.71;65.12;94688.94;4997507;28;20478;-62
2022/03/07 08:33:51;;;;;;;10.23;7.00;;;3.90;95.80;;;3.74;65.49;94689.56;4996788;28;20523;-57
2022/03/07 08:36:19;;;;;;;11.97;7.33;;;4.00;95.80;;;3.80;65.91;94688.34;5005153;28;20497;-56
2022/03/07 08:38:46;;;;;;;7.13;5.33;;;4.00;95.90;;;3.84;65.44;94687.19;5003133;28;20450;-57
2022/03/07 08:41:15;;;;;;;7.63;5.80;;;4.10;95.80;;;3.90;65.72;94688.53;5000348;28;20481;-55
2022/03/07 08:43:42;;;;;;;8.13;5.10;;;4.10;95.80;;;3.94;64.73;94688.22;4994498;28;20943;-62
2022/03/07 08:46:09;;;;;;;6.50;4.37;;;4.20;95.10;;;3.98;64.74;94694.03;4994932;28;20552;-61
2022/03/07 08:48:37;;;;;;;5.00;3.30;;;4.20;95.20;;;4.00;63.74;94693.94;4996942;28;20455;-56
2022/03/07 08:51:04;;;;;;;8.47;4.47;;;4.20;94.50;;;4.02;64.51;94692.09;5000180;28;20485;-55
2022/03/07 08:53:32;;;;;;;7.33;4.40;;;4.20;95.00;;;4.07;64.07;94703.81;5004442;28;20445;-63
2022/03/07 08:55:59;;;;;;;4.97;4.40;;;4.30;94.90;;;4.12;64.53;94698.31;4999347;28;20504;-63
2022/03/07 08:58:28;;;;;;;5.77;3.40;;;4.30;94.80;;;4.14;62.96;94693.84;5005514;28;21061;-56
2022/03/07 09:00:55;;;;;;;3.83;3.50;;;4.40;94.20;;;4.17;63.67;94685.81;4992167;28;20566;-62
2022/03/07 09:03:22;;;;;;;3.57;3.33;;;4.40;94.30;;;4.18;63.35;94690.06;4993108;28;20458;-56
2022/03/07 09:05:49;;;;;;;6.27;3.80;;;4.40;94.10;;;4.20;63.02;94687.38;4997073;28;20879;-56
2022/03/07 09:08:17;;;;;;;3.90;3.50;;;4.40;94.00;;;4.20;63.35;94689.97;5000438;28;20463;-62
2022/03/07 09:10:44;;;;;;;4.90;4.40;;;4.40;94.00;;;4.24;62.79;94691.44;5001836;28;20459;-56
2022/03/07 09:13:11;;;;;;;6.30;5.17;;;4.50;93.70;;;4.24;62.79;94687.06;5002784;28;20792;-60
2022/03/07 09:15:42;;;;;;;10.87;6.70;;;4.50;93.60;;;4.26;63.45;94693.00;5000214;28;20496;-57
2022/03/07 09:18:09;;;;;;;7.93;6.23;;;4.50;94.10;;;4.29;63.38;94689.34;4992267;28;20443;-62
2022/03/07 09:20:37;;;;;;;15.37;8.50;;;4.50;93.90;;;4.32;62.24;94689.13;4991356;28;20486;-55
2022/03/07 09:23:04;;;;;;;18.87;7.03;;;4.50;93.50;;;4.34;63.01;94689.88;4993319;28;20465;-61
2022/03/07 09:25:31;;;;;;;7.33;5.67;;;4.60;93.90;;;4.37;62.94;94684.44;4995053;28;20827;-63
2022/03/07 09:27:59;;;;;;;9.50;5.83;;;4.60;93.60;;;4.40;63.02;94683.38;4992454;28;20458;-62
2022/03/07 09:30:26;;;;;;;10.03;4.93;;;4.60;93.80;;;4.46;63.16;94682.97;5001218;28;20561;-61
2022/03/07 09:32:56;;;;;;;4.57;3.90;;;4.70;94.00;;;4.54;62.87;94679.81;4997058;28;20450;-55
2022/03/07 09:35:23;;;;;;;8.17;4.90;;;4.70;93.80;;;4.59;62.75;94675.97;5000279;28;20627;-61
2022/03/07 09:37:50;;;;;;;6.17;4.83;;;4.80;93.80;;;4.64;62.51;94673.84;4995278;28;20458;-61
2022/03/07 09:40:17;;;;;;;9.00;5.13;;;4.80;93.50;;;4.68;62.06;94674.47;4989059;28;20454;-56
2022/03/07 09:42:46;;;;;;;8.67;5.10;;;4.90;93.10;;;4.71;62.51;94674.25;4996558;28;21208;-61
2022/03/07 09:45:13;;;;;;;8.60;6.30;;;4.90;93.40;;;4.77;62.58;94673.84;4994631;28;20453;-61
2022/03/07 09:47:43;;;;;;;10.77;6.10;;;5.00;93.40;;;4.80;62.05;94667.56;5000495;28;20558;-57
2022/03/07 09:50:12;;;;;;;9.10;6.90;;;5.00;93.10;;;4.81;62.27;94666.63;5000205;28;20627;-62
2022/03/07 09:52:39;;;;;;;21.80;8.40;;;5.00;93.30;;;4.84;62.20;94669.00;5004754;28;20829;-57
2022/03/07 09:55:09;;;;;;;13.20;8.20;;;5.10;93.20;;;4.89;62.40;94661.69;4999473;28;20454;-58
2022/03/07 09:57:37;;;;;;;8.67;6.30;;;5.10;93.40;;;4.97;62.16;94666.34;4991889;28;20489;-61
2022/03/07 10:00:06;;;;;;;8.73;6.57;;;5.20;93.30;;;5.03;62.09;94669.34;4994719;28;20455;-57
2022/03/07 10:02:33;;;;;;;7.77;6.73;;;5.20;93.00;;;5.08;61.63;94666.41;4996116;28;20861;-60
2022/03/07 10:05:02;;;;;;;8.40;6.47;;;5.30;92.90;;;5.14;62.24;94665.13;4995356;28;20455;-61
2022/03/07 10:07:30;;;;;;;10.33;5.60;;;5.30;92.90;;;5.18;61.50;94663.97;4996763;28;20502;-58
2022/03/07 10:10:06;;;;;;;6.47;4.90;;;5.30;92.90;;;5.22;60.99;94668.00;5005221;28;20753;-62
2022/03/07 10:12:33;;;;;;;5.37;4.03;;;5.40;92.30;;;5.18;59.76;94666.56;5002886;28;20912;-61
2022/03/07 10:15:14;;;;;;;4.80;3.97;;;5.40;91.00;;;5.15;59.40;94672.00;4994217;28;20990;-56
2022/03/07 10:17:41;;;;;;;4.83;4.23;;;5.40;90.70;;;5.15;60.80;94672.00;4990250;28;20465;-56
2022/03/07 10:20:10;;;;;;;5.93;4.80;;;5.40;92.00;;;5.16;60.96;94671.88;4993772;28;20454;-61
2022/03/07 10:22:45;;;;;;;5.17;4.77;;;5.40;92.10;;;5.21;61.23;94676.78;4998878;28;20476;-61
2022/03/07 10:25:13;;;;;;;5.77;5.10;;;5.40;92.30;;;5.23;60.68;94674.88;4997912;28;20542;-61
2022/03/07 10:27:41;;;;;;;8.10;6.37;;;5.40;92.00;;;5.22;60.92;94675.84;4998286;28;20478;-56
2022/03/07 10:30:12;;;;;;;9.83;6.93;;;5.40;91.80;;;5.24;61.18;94666.13;5001816;28;20459;-60
2022/03/07 10:32:39;;;;;;;7.80;6.47;;;5.40;92.20;;;5.25;61.43;94662.56;5000341;28;20463;-60